createdAt,value
2023-03-10T00:03:08.261Z,8.43
2023-03-10T00:05:37.580Z,7.68
2023-03-10T00:08:06.247Z,7.38
2023-03-10T00:10:33.606Z,8.30
2023-03-10T00:13:01.026Z,7.93
2023-03-10T00:15:28.491Z,8.48
2023-03-10T00:17:56.028Z,8.30
2023-03-10T00:20:23.708Z,7.95
2023-03-10T00:22:51.039Z,8.63
2023-03-10T00:25:18.455Z,8.77
2023-03-10T00:27:46.082Z,8.43
2023-03-10T00:30:13.730Z,8.85
2023-03-10T00:32:41.149Z,8.23
2023-03-10T00:35:08.814Z,8.60
2023-03-10T00:37:38.443Z,8.32
2023-03-10T00:40:10.739Z,8.20
2023-03-10T00:42:39.750Z,7.85
2023-03-10T00:45:08.370Z,8.27
2023-03-10T00:47:35.684Z,8.20
2023-03-10T00:50:03.048Z,8.43
2023-03-10T00:52:33.909Z,8.00
2023-03-10T00:55:01.223Z,8.10
2023-03-10T00:57:29.996Z,8.20
2023-03-10T00:59:57.424Z,7.93
2023-03-10T01:02:24.720Z,7.72
2023-03-10T01:04:52.222Z,7.85
2023-03-10T01:07:19.589Z,7.43
2023-03-10T01:09:46.929Z,7.68
2023-03-10T01:12:14.348Z,7.70
2023-03-10T01:14:41.712Z,7.90
2023-03-10T01:17:09.306Z,7.53
2023-03-10T01:19:36.641Z,7.05
2023-03-10T01:22:04.069Z,6.90
2023-03-10T01:24:31.626Z,6.70
2023-03-10T01:26:58.998Z,7.20
2023-03-10T01:29:27.149Z,6.78
2023-03-10T01:31:56.337Z,6.35
2023-03-10T01:34:23.654Z,6.82
2023-03-10T01:36:50.998Z,7.07
2023-03-10T01:39:18.543Z,6.60
2023-03-10T01:41:45.853Z,6.60
2023-03-10T01:44:20.171Z,6.72
2023-03-10T01:46:55.474Z,6.47
2023-03-10T01:49:42.394Z,6.72
2023-03-10T01:52:17.942Z,6.45
2023-03-10T01:55:26.977Z,6.30
2023-03-10T01:57:57.099Z,6.40
2023-03-10T02:00:27.043Z,6.75
2023-03-10T02:03:08.103Z,5.75
2023-03-10T02:05:38.892Z,6.32
2023-03-10T02:08:07.355Z,6.30
2023-03-10T02:10:34.595Z,6.40
2023-03-10T02:13:01.973Z,6.45
2023-03-10T02:15:30.123Z,6.07
2023-03-10T02:17:58.401Z,6.57
2023-03-10T02:23:11.327Z,6.25
2023-03-10T02:25:47.102Z,6.72
2023-03-10T02:28:14.689Z,6.70
2023-03-10T02:30:47.534Z,7.28
2023-03-10T02:33:27.968Z,8.02
2023-03-10T02:36:14.740Z,6.72
2023-03-10T02:38:42.238Z,6.80
2023-03-10T02:41:21.793Z,6.53
2023-03-10T02:43:50.511Z,7.13
2023-03-10T02:46:26.455Z,6.82
2023-03-10T02:48:54.000Z,6.80
2023-03-10T02:51:33.241Z,6.60
2023-03-10T02:56:34.942Z,6.60
2023-03-10T02:59:02.540Z,6.80
2023-03-10T03:01:30.734Z,7.00
2023-03-10T03:03:59.449Z,7.28
2023-03-10T03:06:27.587Z,6.70
2023-03-10T03:08:55.026Z,7.07
2023-03-10T03:11:24.594Z,7.28
2023-03-10T03:13:53.581Z,7.47
2023-03-10T03:16:21.246Z,6.95
2023-03-10T03:18:53.240Z,7.20
2023-03-10T03:21:23.028Z,7.30
2023-03-10T03:23:50.676Z,8.43
2023-03-10T03:26:23.853Z,9.10
2023-03-10T03:28:54.878Z,9.63
2023-03-10T03:31:27.117Z,9.32
2023-03-10T03:34:05.880Z,9.50
2023-03-10T03:36:34.017Z,8.90
2023-03-10T03:39:01.650Z,8.32
2023-03-10T03:41:31.903Z,8.05
2023-03-10T03:43:59.978Z,8.40
2023-03-10T03:46:27.844Z,8.13
2023-03-10T03:48:55.605Z,7.95
2023-03-10T03:51:23.183Z,8.05
2023-03-10T03:53:50.787Z,8.32
2023-03-10T03:56:18.370Z,8.23
2023-03-10T03:58:46.405Z,8.35
2023-03-10T04:01:14.537Z,8.30
2023-03-10T04:03:46.991Z,7.57
2023-03-10T04:06:17.178Z,7.05
2023-03-10T04:11:13.479Z,6.90
2023-03-10T04:13:43.790Z,7.97
2023-03-10T04:16:12.866Z,8.18
2023-03-10T04:18:41.869Z,7.53
2023-03-10T04:21:12.251Z,7.32
2023-03-10T04:23:42.413Z,8.27
2023-03-10T04:26:12.210Z,8.63
2023-03-10T04:28:41.161Z,7.75
2023-03-10T04:31:18.016Z,8.07
2023-03-10T04:33:47.620Z,7.75
2023-03-10T04:36:16.371Z,7.43
2023-03-10T04:38:46.681Z,8.13
2023-03-10T04:41:14.451Z,7.72
2023-03-10T04:43:47.631Z,7.93
2023-03-10T04:46:16.589Z,8.10
2023-03-10T04:48:44.914Z,8.40
2023-03-10T04:51:13.929Z,7.85
2023-03-10T04:54:01.017Z,7.93
2023-03-10T04:56:33.080Z,7.93
2023-03-10T04:59:01.659Z,8.75
2023-03-10T05:01:33.473Z,8.10
2023-03-10T05:04:06.813Z,7.57
2023-03-10T05:06:35.733Z,8.15
2023-03-10T05:09:36.324Z,7.80
2023-03-10T05:12:05.837Z,6.95
2023-03-10T05:14:37.835Z,7.22
2023-03-10T05:17:06.707Z,7.93
2023-03-10T05:19:37.634Z,6.75
2023-03-10T05:22:06.696Z,6.47
2023-03-10T05:24:37.288Z,6.50
2023-03-10T05:29:36.678Z,7.10
2023-03-10T05:32:10.908Z,7.50
2023-03-10T05:34:45.475Z,8.07
2023-03-10T05:37:13.289Z,7.30
2023-03-10T05:39:44.568Z,7.78
2023-03-10T05:42:20.103Z,7.45
2023-03-10T05:44:53.641Z,7.63
2023-03-10T05:47:25.684Z,7.50
2023-03-10T05:49:54.321Z,8.00
2023-03-10T05:52:22.448Z,7.78
2023-03-10T05:57:25.064Z,7.38
2023-03-10T05:59:53.340Z,6.90
2023-03-10T06:02:21.647Z,8.13
2023-03-10T06:07:18.057Z,7.53
2023-03-10T06:09:46.220Z,7.47
2023-03-10T06:12:15.776Z,7.88
2023-03-10T06:14:43.300Z,8.15
2023-03-10T06:17:11.399Z,8.40
2023-03-10T06:19:41.096Z,8.13
2023-03-10T06:22:12.002Z,7.70
2023-03-10T06:24:40.013Z,7.95
2023-03-10T06:27:11.280Z,7.40
2023-03-10T06:29:40.093Z,8.18
2023-03-10T06:32:08.047Z,8.55
2023-03-10T06:34:35.859Z,7.57
2023-03-10T06:37:06.589Z,8.10
2023-03-10T06:42:09.382Z,8.23
2023-03-10T06:44:37.463Z,9.80
2023-03-10T06:47:06.063Z,7.60
2023-03-10T06:49:34.383Z,7.78
2023-03-10T06:52:02.316Z,7.72
2023-03-10T06:54:29.883Z,8.05
2023-03-10T06:56:57.676Z,8.30
2023-03-10T06:59:25.720Z,8.10
2023-03-10T07:01:53.639Z,7.53
2023-03-10T07:04:21.287Z,7.65
2023-03-10T07:06:49.633Z,7.70
2023-03-10T07:09:17.424Z,7.60
2023-03-10T07:11:45.421Z,7.72
2023-03-10T07:14:13.103Z,7.00
2023-03-10T07:16:43.776Z,8.50
2023-03-10T07:19:15.832Z,7.55
2023-03-10T07:21:44.376Z,7.18
2023-03-10T07:24:13.452Z,7.10
2023-03-10T07:26:52.917Z,6.97
2023-03-10T07:29:37.693Z,6.65
2023-03-10T07:32:07.295Z,6.35
2023-03-10T07:34:38.386Z,7.07
2023-03-10T07:37:22.171Z,6.72
2023-03-10T07:40:01.437Z,6.20
2023-03-10T07:45:59.030Z,6.63
2023-03-10T07:48:26.737Z,6.05
2023-03-10T07:51:02.518Z,5.90
2023-03-10T07:53:33.542Z,5.65
2023-03-10T07:56:08.255Z,5.13
2023-03-10T07:58:42.804Z,5.15
2023-03-10T08:01:16.681Z,4.72
2023-03-10T08:03:45.295Z,5.20
2023-03-10T08:06:27.978Z,5.05
2023-03-10T08:08:56.668Z,5.00
2023-03-10T08:11:32.042Z,5.93
2023-03-10T08:14:06.369Z,5.53
2023-03-10T08:16:45.426Z,5.80
2023-03-10T08:19:13.451Z,5.85
2023-03-10T08:21:44.981Z,5.05
2023-03-10T08:24:24.967Z,6.35
2023-03-10T08:27:00.691Z,5.85
2023-03-10T08:30:25.602Z,5.53
2023-03-10T08:32:53.531Z,5.20
2023-03-10T08:35:34.990Z,6.38
2023-03-10T08:38:03.821Z,6.15
2023-03-10T08:40:35.422Z,5.80
2023-03-10T08:43:03.444Z,5.60
2023-03-10T08:45:31.242Z,5.28
2023-03-10T08:48:06.455Z,5.47
2023-03-10T08:50:36.712Z,5.53
2023-03-10T08:53:06.844Z,5.10
2023-03-10T08:55:36.082Z,4.97
2023-03-10T08:58:03.933Z,4.03
2023-03-10T09:00:33.041Z,3.95
2023-03-10T09:03:03.899Z,4.53
2023-03-10T09:05:31.818Z,4.70
2023-03-10T09:10:38.717Z,4.15
2023-03-10T09:13:14.610Z,3.80
2023-03-10T09:15:42.960Z,4.07
2023-03-10T09:18:18.700Z,4.15
2023-03-10T09:23:37.320Z,5.15
2023-03-10T09:26:07.952Z,4.95
2023-03-10T09:28:36.630Z,4.32
2023-03-10T09:31:31.719Z,4.05
2023-03-10T09:33:59.579Z,4.13
2023-03-10T09:36:27.521Z,3.92
2023-03-10T09:42:07.499Z,3.22
2023-03-10T09:47:27.964Z,3.08
2023-03-10T09:50:23.081Z,3.05
2023-03-10T09:53:17.044Z,3.85
2023-03-10T09:55:48.536Z,2.70
2023-03-10T09:58:40.073Z,3.22
2023-03-10T10:01:34.304Z,3.22
2023-03-10T10:04:23.366Z,3.17
2023-03-10T10:06:51.690Z,3.30
2023-03-10T10:09:42.621Z,3.17
2023-03-10T10:12:16.100Z,3.67
2023-03-10T10:14:55.261Z,2.90
2023-03-10T10:17:25.835Z,3.08
2023-03-10T10:19:53.660Z,3.60
2023-03-10T10:22:30.335Z,3.00
2023-03-10T10:25:10.187Z,3.13
2023-03-10T10:27:39.012Z,2.80
2023-03-10T10:30:36.808Z,2.60
2023-03-10T10:33:06.791Z,2.45
2023-03-10T10:36:06.142Z,2.53
2023-03-10T10:42:58.076Z,3.80
2023-03-10T10:45:33.804Z,3.85
2023-03-10T10:48:06.613Z,3.60
2023-03-10T10:50:37.893Z,3.38
2023-03-10T10:53:38.653Z,3.40
2023-03-10T10:56:13.913Z,3.47
2023-03-10T10:58:43.681Z,3.47
2023-03-10T11:01:16.896Z,3.40
2023-03-10T11:03:48.344Z,3.95
2023-03-10T11:06:26.007Z,3.83
2023-03-10T11:09:09.336Z,3.88
2023-03-10T11:12:12.132Z,4.05
2023-03-10T11:14:50.218Z,3.47
2023-03-10T11:17:24.073Z,3.78
2023-03-10T11:20:17.658Z,4.10
2023-03-10T11:23:30.144Z,3.50
2023-03-10T11:26:10.929Z,3.70
2023-03-10T11:28:44.435Z,3.78
2023-03-10T11:31:53.222Z,3.92
2023-03-10T11:34:21.346Z,3.72
2023-03-10T11:37:21.678Z,3.90
2023-03-10T11:39:52.132Z,3.97
2023-03-10T11:42:31.315Z,4.00
2023-03-10T11:45:25.269Z,3.90
2023-03-10T11:48:29.805Z,3.70
2023-03-10T11:51:01.070Z,3.80
2023-03-10T11:53:45.529Z,3.38
2023-03-10T11:56:16.216Z,3.80
2023-03-10T11:58:53.101Z,3.67
2023-03-10T12:01:57.488Z,3.53
2023-03-10T12:04:31.310Z,3.40
2023-03-10T12:07:16.488Z,3.63
2023-03-10T12:09:52.587Z,3.65
2023-03-10T12:12:38.880Z,3.53
2023-03-10T12:15:24.193Z,4.30
2023-03-10T12:17:54.082Z,3.38
2023-03-10T12:20:22.571Z,3.95
2023-03-10T12:22:57.563Z,3.83
2023-03-10T12:25:33.087Z,3.30
2023-03-10T12:28:24.851Z,3.63
2023-03-10T12:31:07.081Z,3.92
2023-03-10T12:33:35.327Z,3.25
2023-03-10T12:36:16.536Z,4.20
2023-03-10T12:38:58.915Z,3.33
2023-03-10T12:41:26.293Z,3.92
2023-03-10T12:44:03.001Z,3.60
2023-03-10T12:46:58.384Z,3.67
2023-03-10T12:49:49.050Z,3.42
2023-03-10T12:53:16.124Z,3.50
2023-03-10T12:58:38.088Z,3.33
2023-03-10T13:01:08.267Z,3.35
2023-03-10T13:07:49.899Z,3.85
2023-03-10T13:10:22.178Z,3.70
2023-03-10T13:12:53.900Z,3.50
2023-03-10T13:15:27.967Z,3.47
2023-03-10T13:18:31.080Z,3.47
2023-03-10T13:21:02.129Z,4.05
2023-03-10T13:34:21.095Z,3.83
2023-03-10T13:36:49.357Z,4.40
2023-03-10T13:39:28.259Z,3.50
2023-03-10T13:41:58.370Z,4.00
2023-03-10T13:44:45.036Z,3.78
2023-03-10T13:47:21.411Z,3.78
2023-03-10T13:49:55.528Z,3.88
2023-03-10T13:52:27.676Z,4.28
2023-03-10T13:55:17.486Z,4.20
2023-03-10T13:57:48.042Z,3.72
2023-03-10T14:00:24.534Z,3.78
2023-03-10T14:02:54.107Z,3.83
2023-03-10T14:05:40.395Z,3.58
2023-03-10T14:08:32.724Z,4.05
2023-03-10T14:11:22.188Z,4.05
2023-03-10T14:13:50.000Z,4.55
2023-03-10T14:16:17.478Z,4.32
2023-03-10T14:18:44.869Z,4.22
2023-03-10T14:21:24.359Z,4.75
2023-03-10T14:23:52.153Z,5.00
2023-03-10T14:28:46.905Z,5.15
2023-03-10T14:31:21.451Z,5.00
2023-03-10T14:33:49.142Z,4.82
2023-03-10T14:36:16.600Z,4.82
2023-03-10T14:38:46.771Z,4.70
2023-03-10T14:41:15.384Z,5.32
2023-03-10T14:43:43.100Z,4.60
2023-03-10T14:46:13.102Z,5.00
2023-03-10T14:48:42.202Z,4.97
2023-03-10T14:51:32.563Z,4.53
2023-03-10T14:54:02.244Z,4.97
2023-03-10T14:56:30.627Z,5.53
2023-03-10T14:59:02.633Z,5.60
2023-03-10T15:01:31.247Z,5.13
2023-03-10T15:03:58.561Z,4.95
2023-03-10T15:06:25.894Z,5.05
2023-03-10T15:08:53.204Z,4.93
2023-03-10T15:11:35.749Z,5.32
2023-03-10T15:14:16.683Z,6.15
2023-03-10T15:16:44.604Z,6.60
2023-03-10T15:21:45.956Z,5.70
2023-03-10T15:24:13.534Z,5.72
2023-03-10T15:26:40.931Z,6.25
2023-03-10T15:29:08.301Z,6.40
2023-03-10T15:31:35.707Z,6.85
2023-03-10T15:34:03.107Z,6.00
2023-03-10T15:36:30.436Z,6.45
2023-03-10T15:38:57.758Z,6.22
2023-03-10T15:41:25.824Z,6.40
2023-03-10T15:46:20.779Z,6.50
2023-03-10T15:48:48.108Z,6.13
2023-03-10T15:51:18.207Z,6.05
2023-03-10T15:53:45.697Z,5.55
2023-03-10T15:56:14.105Z,5.90
2023-03-10T15:58:43.180Z,6.07
2023-03-10T16:01:17.031Z,6.32
2023-03-10T16:03:44.720Z,6.43
2023-03-10T16:06:12.884Z,6.38
2023-03-10T16:08:40.334Z,7.13
2023-03-10T16:11:16.117Z,6.68
2023-03-10T16:13:46.803Z,6.97
2023-03-10T16:16:14.744Z,7.93
2023-03-10T16:21:10.300Z,7.05
2023-03-10T16:23:37.832Z,7.00
2023-03-10T16:26:17.802Z,7.18
2023-03-10T16:28:48.181Z,6.90
2023-03-10T16:31:17.433Z,7.18
2023-03-10T16:33:47.005Z,8.07
2023-03-10T16:36:17.282Z,7.60
2023-03-10T16:38:44.917Z,7.53
2023-03-10T16:41:12.607Z,7.72
2023-03-10T16:43:40.108Z,7.88
2023-03-10T16:46:25.850Z,8.02
2023-03-10T16:48:55.145Z,7.47
2023-03-10T16:51:25.409Z,7.80
2023-03-10T16:53:54.654Z,7.65
2023-03-10T16:56:22.642Z,7.55
2023-03-10T17:01:18.900Z,7.47
2023-03-10T17:06:17.553Z,7.32
2023-03-10T17:08:45.028Z,7.72
2023-03-10T17:11:31.354Z,7.50
2023-03-10T17:14:01.614Z,8.57
2023-03-10T17:16:31.048Z,9.07
2023-03-10T17:19:00.800Z,10.43
2023-03-10T17:21:33.007Z,9.07
2023-03-10T17:24:00.386Z,9.55
2023-03-10T17:26:28.563Z,8.65
2023-03-10T17:28:56.250Z,8.25
2023-03-10T17:31:26.738Z,8.65
2023-03-10T17:34:00.524Z,8.38
2023-03-10T17:36:28.338Z,7.75
2023-03-10T17:38:58.015Z,8.32
2023-03-10T17:41:26.627Z,8.60
2023-03-10T17:43:54.695Z,8.15
2023-03-10T17:48:53.724Z,7.57
2023-03-10T17:51:26.980Z,7.90
2023-03-10T17:53:56.651Z,8.35
2023-03-10T17:56:24.506Z,8.60
2023-03-10T17:58:56.072Z,8.23
2023-03-10T18:01:29.284Z,8.35
2023-03-10T18:03:58.427Z,8.90
2023-03-10T18:06:29.165Z,8.70
2023-03-10T18:08:58.744Z,8.52
2023-03-10T18:11:27.159Z,9.20
2023-03-10T18:13:54.679Z,9.38
2023-03-10T18:16:25.106Z,8.90
2023-03-10T18:18:52.735Z,9.43
2023-03-10T18:21:20.627Z,9.15
2023-03-10T18:23:49.019Z,9.10
2023-03-10T18:26:20.391Z,9.40
2023-03-10T18:28:47.761Z,9.20
2023-03-10T18:31:19.857Z,9.23
2023-03-10T18:33:48.640Z,9.48
2023-03-10T18:36:17.640Z,9.95
2023-03-10T18:38:46.034Z,9.52
2023-03-10T18:41:14.067Z,9.13
2023-03-10T18:46:08.792Z,10.07
2023-03-10T18:48:36.268Z,9.93
2023-03-10T18:51:13.993Z,9.73
2023-03-10T18:53:42.426Z,10.23
2023-03-10T18:56:10.474Z,10.20
2023-03-10T19:01:14.179Z,9.27
2023-03-10T19:03:42.297Z,9.38
2023-03-10T19:06:10.388Z,9.35
2023-03-10T19:08:39.021Z,10.23
2023-03-10T19:11:07.223Z,10.55
2023-03-10T19:13:35.673Z,10.52
2023-03-10T19:16:07.908Z,10.80
2023-03-10T19:18:36.145Z,10.98
2023-03-10T19:21:04.223Z,10.77
2023-03-10T19:26:00.020Z,10.55
2023-03-10T19:28:27.820Z,11.05
2023-03-10T19:30:55.356Z,10.93
2023-03-10T19:33:23.726Z,10.85
2023-03-10T19:35:59.596Z,11.20
2023-03-10T19:38:28.380Z,11.27
2023-03-10T19:40:55.786Z,11.30
2023-03-10T19:43:23.187Z,11.23
2023-03-10T19:45:50.632Z,12.10
2023-03-10T19:48:18.213Z,11.80
2023-03-10T19:50:45.613Z,12.13
2023-03-10T19:53:13.044Z,11.23
2023-03-10T19:55:41.094Z,11.23
2023-03-10T20:03:04.300Z,12.02
2023-03-10T20:05:31.662Z,11.02
2023-03-10T20:07:59.279Z,11.98
2023-03-10T20:10:26.664Z,12.25
2023-03-10T20:12:54.092Z,12.85
2023-03-10T20:15:21.636Z,12.77
2023-03-10T20:17:49.058Z,13.55
2023-03-10T20:20:20.249Z,14.23
2023-03-10T20:22:49.873Z,12.85
2023-03-10T20:25:19.772Z,14.15
2023-03-10T20:27:49.110Z,12.48
2023-03-10T20:30:18.556Z,13.77
2023-03-10T20:32:46.183Z,13.77
2023-03-10T20:35:15.416Z,12.30
2023-03-10T20:37:42.864Z,12.82
2023-03-10T20:40:13.656Z,13.80
2023-03-10T20:42:41.416Z,13.35
2023-03-10T20:45:10.134Z,12.48
2023-03-10T20:47:38.065Z,13.15
2023-03-10T20:50:06.715Z,13.02
2023-03-10T20:52:35.746Z,12.93
2023-03-10T20:55:03.999Z,13.38
2023-03-10T20:57:34.305Z,12.57
2023-03-10T21:00:01.689Z,12.57
2023-03-10T21:02:30.792Z,12.15
2023-03-10T21:04:58.152Z,12.57
2023-03-10T21:07:25.468Z,11.77
2023-03-10T21:09:52.792Z,12.40
2023-03-10T21:12:21.391Z,12.40
2023-03-10T21:14:48.666Z,12.27
2023-03-10T21:17:16.039Z,13.13
2023-03-10T21:19:43.463Z,13.45
2023-03-10T21:22:10.746Z,13.15
2023-03-10T21:24:38.910Z,13.18
2023-03-10T21:27:06.331Z,14.27
2023-03-10T21:29:34.844Z,13.85
2023-03-10T21:32:02.207Z,13.85
2023-03-10T21:34:31.743Z,14.32
2023-03-10T21:36:59.657Z,13.77
2023-03-10T21:39:27.094Z,14.23
2023-03-10T21:41:54.522Z,13.32
2023-03-10T21:44:21.820Z,14.68
2023-03-10T21:46:50.807Z,14.48
2023-03-10T21:49:18.201Z,14.73
2023-03-10T21:51:45.561Z,15.25
2023-03-10T21:54:12.996Z,13.88
2023-03-10T21:56:40.532Z,15.50
2023-03-10T21:59:08.184Z,15.30
2023-03-10T22:01:35.573Z,14.27
2023-03-10T22:04:02.988Z,14.27
2023-03-10T22:06:30.657Z,15.88
2023-03-10T22:08:58.022Z,14.95
2023-03-10T22:11:25.305Z,15.73
2023-03-10T22:13:54.107Z,14.23
2023-03-10T22:16:21.694Z,14.77
2023-03-10T22:18:49.777Z,16.48
2023-03-10T22:23:45.342Z,14.82
2023-03-10T22:26:14.281Z,14.80
2023-03-10T22:28:41.647Z,15.45
2023-03-10T22:31:10.338Z,16.27
2023-03-10T22:33:37.733Z,16.35
2023-03-10T22:36:07.488Z,15.95
2023-03-10T22:38:35.039Z,15.07
2023-03-10T22:41:02.684Z,15.35
2023-03-10T22:43:30.013Z,15.55
2023-03-10T22:45:59.461Z,15.82
2023-03-10T22:48:26.804Z,15.27
2023-03-10T22:50:54.126Z,15.73
2023-03-10T22:53:21.436Z,15.70
2023-03-10T22:55:50.104Z,15.45
2023-03-10T22:58:17.549Z,16.42
2023-03-10T23:00:45.001Z,15.88
2023-03-10T23:03:14.072Z,15.40
2023-03-10T23:05:42.173Z,15.70
2023-03-10T23:08:09.543Z,16.33
2023-03-10T23:10:38.206Z,16.27
2023-03-10T23:13:08.865Z,15.23
2023-03-10T23:15:37.917Z,16.55
2023-03-10T23:18:06.492Z,15.90
2023-03-10T23:20:42.991Z,16.35
2023-03-10T23:23:12.716Z,16.83
2023-03-10T23:25:42.423Z,14.45
2023-03-10T23:28:11.403Z,16.25
2023-03-10T23:30:40.694Z,15.45
2023-03-10T23:33:08.160Z,16.25
2023-03-10T23:35:36.188Z,16.52
2023-03-10T23:38:05.978Z,16.73
2023-03-10T23:40:34.738Z,16.00
2023-03-10T23:43:03.433Z,16.90
2023-03-10T23:45:32.622Z,16.33
2023-03-10T23:48:01.725Z,17.15
2023-03-10T23:50:33.182Z,16.90
2023-03-10T23:53:00.664Z,16.23
2023-03-10T23:55:32.415Z,17.25
2023-03-10T23:58:00.125Z,20.35
